Terminal Aerodrome Forecast
Issued by NWS Albany, NY

Home | Current Version | Previous Version | Text Only | Print | Product List | Glossary On
Versions: 1 2 3 4 5 6 7 8 9 10 11 12 13 14 15 16 17 18
958
FTUS41 KALY 221120
TAFGFL
TAF
KGFL 221120Z 2212/2312 23006KT P6SM SCT090 SCT110
     FM221500 30010G16KT P6SM SCT060
     FM221800 30012G22KT P6SM BKN060
     FM230100 32006KT P6SM SKC
     FM230600 VRB03KT P6SM SKC=

USA.gov is the U.S. government's official web portal to all federal, state and local government web resources and services.